Visit the IPS Meteostar Home Page 2IPSM Phoenix Sky Harbor International Airport FORECAST

Phoenix, Arizona

2 miles away at Phoenix Sky Harbor International Airport 4:51 GMT

Weather:

Clear

Wind:

CALM

Temperature:

91 ° F

Pressure:

29.86

Dew Point:

52 ° F

Relative Humidity:

26

Feels Like:

88 ° F

Visibility:

10 miles


Aviation Observations:

KPHX 220451Z 00000KT 10SM CLR 33/11 A2989 RMK AO2 SLP103 T03280111 =

National Weather Service Forecast:
Greater Phoenix Area


Visit the IPS Meteostar Home Page